createdAt,value
2016-12-01T00:00:36.206Z,0
2016-12-01T00:01:52.385Z,0
2016-12-01T00:03:09.174Z,0
2016-12-01T00:04:25.667Z,0
2016-12-01T00:05:39.174Z,0
2016-12-01T00:06:55.572Z,0
2016-12-01T00:08:09.196Z,0
2016-12-01T00:09:25.551Z,0
2016-12-01T00:10:40.797Z,0
2016-12-01T00:11:55.903Z,0
2016-12-01T00:13:10.800Z,0
2016-12-01T00:14:27.437Z,0
2016-12-01T00:15:42.448Z,0
2016-12-01T00:16:59.090Z,0
2016-12-01T00:18:15.710Z,0
2016-12-01T00:19:31.802Z,0
2016-12-01T00:20:44.680Z,0
2016-12-01T00:22:00.212Z,0
2016-12-01T00:23:14.996Z,0
2016-12-01T00:24:28.297Z,0
2016-12-01T00:25:44.632Z,0
2016-12-01T00:26:58.004Z,0
2016-12-01T00:28:13.654Z,0
2016-12-01T00:29:29.945Z,0
2016-12-01T00:30:44.620Z,0
2016-12-01T00:32:00.016Z,0
2016-12-01T00:33:16.161Z,0
2016-12-01T00:34:32.458Z,0
2016-12-01T00:35:48.901Z,0
2016-12-01T00:37:03.646Z,0
2016-12-01T00:38:18.685Z,0
2016-12-01T00:39:30.794Z,0
2016-12-01T00:40:44.783Z,0
2016-12-01T00:42:01.106Z,0
2016-12-01T00:43:14.137Z,0
2016-12-01T00:44:28.789Z,0
2016-12-01T00:45:44.701Z,0
2016-12-01T00:47:01.048Z,0
2016-12-01T00:48:16.958Z,0
2016-12-01T00:49:31.637Z,0
2016-12-01T00:50:47.058Z,0
2016-12-01T00:52:02.106Z,0
2016-12-01T00:53:18.082Z,0
2016-12-01T00:54:34.894Z,0
2016-12-01T00:55:51.084Z,0
2016-12-01T00:57:05.283Z,0
2016-12-01T00:58:19.825Z,0
2016-12-01T00:59:36.221Z,0
2016-12-01T01:00:52.103Z,0
2016-12-01T01:02:07.014Z,0
2016-12-01T01:03:21.205Z,0
2016-12-01T01:04:34.733Z,0
2016-12-01T01:05:48.925Z,0
2016-12-01T01:07:05.086Z,0
2016-12-01T01:08:21.387Z,0
2016-12-01T01:09:36.950Z,0
2016-12-01T01:10:52.845Z,0
2016-12-01T01:12:07.644Z,0
2016-12-01T01:13:22.315Z,0
2016-12-01T01:14:37.842Z,0
2016-12-01T01:15:52.713Z,0
2016-12-01T01:17:06.998Z,0
2016-12-01T01:18:23.090Z,0
2016-12-01T01:19:36.868Z,0
2016-12-01T01:20:53.460Z,0
2016-12-01T01:22:09.806Z,0
2016-12-01T01:23:23.183Z,0
2016-12-01T01:24:37.935Z,0
2016-12-01T01:25:54.536Z,0
2016-12-01T01:27:07.810Z,0
2016-12-01T01:28:21.067Z,0
2016-12-01T01:29:36.992Z,0
2016-12-01T01:30:53.326Z,0
2016-12-01T01:32:09.215Z,0
2016-12-01T01:33:25.107Z,0
2016-12-01T01:34:40.278Z,0
2016-12-01T01:35:56.585Z,0
2016-12-01T01:37:09.823Z,0
2016-12-01T01:38:25.823Z,0
2016-12-01T01:39:41.965Z,0
2016-12-01T01:40:56.857Z,0
2016-12-01T01:42:14.013Z,0
2016-12-01T01:43:30.017Z,0
2016-12-01T01:44:46.766Z,0
2016-12-01T01:46:00.184Z,0
2016-12-01T01:47:13.626Z,0
2016-12-01T01:48:27.498Z,0
2016-12-01T01:49:43.800Z,0
2016-12-01T01:51:00.103Z,0
2016-12-01T01:52:14.400Z,0
2016-12-01T01:53:26.439Z,0
2016-12-01T01:54:42.456Z,0
2016-12-01T01:55:57.467Z,0
2016-12-01T01:57:12.947Z,0
2016-12-01T01:58:29.127Z,0
2016-12-01T01:59:44.611Z,0
2016-12-01T02:01:01.148Z,0
2016-12-01T02:02:16.801Z,0
2016-12-01T02:03:31.867Z,0
2016-12-01T02:04:47.711Z,0
2016-12-01T02:06:03.793Z,0
2016-12-01T02:07:18.279Z,0
2016-12-01T02:08:33.519Z,0
2016-12-01T02:09:49.190Z,0
2016-12-01T02:11:05.238Z,0
2016-12-01T02:12:18.441Z,0
2016-12-01T02:13:30.435Z,0
2016-12-01T02:14:46.396Z,0
2016-12-01T02:16:02.934Z,0
2016-12-01T02:17:19.001Z,0
2016-12-01T02:18:31.762Z,0
2016-12-01T02:19:47.285Z,0
2016-12-01T02:21:04.004Z,0
2016-12-01T02:22:18.055Z,0
2016-12-01T02:23:31.122Z,0
2016-12-01T02:24:46.111Z,0
2016-12-01T02:26:00.946Z,0
2016-12-01T02:27:14.561Z,0
2016-12-01T02:28:30.198Z,0
2016-12-01T02:29:45.055Z,0
2016-12-01T02:31:00.072Z,0
2016-12-01T02:32:16.794Z,0
2016-12-01T02:33:28.762Z,0
2016-12-01T02:34:43.783Z,0
2016-12-01T02:35:55.834Z,0
2016-12-01T02:37:10.179Z,0
2016-12-01T02:38:25.092Z,0
2016-12-01T02:39:41.271Z,0
2016-12-01T02:40:57.332Z,0
2016-12-01T02:42:13.392Z,0
2016-12-01T02:43:29.307Z,0
2016-12-01T02:44:44.490Z,0
2016-12-01T02:45:57.478Z,0
2016-12-01T02:47:12.556Z,0
2016-12-01T02:48:27.104Z,0
2016-12-01T02:49:41.828Z,0
2016-12-01T02:50:55.450Z,0
2016-12-01T02:52:10.299Z,0
2016-12-01T02:53:23.747Z,0
2016-12-01T02:54:36.888Z,0
2016-12-01T02:55:52.647Z,0
2016-12-01T02:57:09.036Z,0
2016-12-01T02:58:26.208Z,0
2016-12-01T02:59:40.830Z,0
2016-12-01T03:00:57.140Z,0
2016-12-01T03:02:13.080Z,0
2016-12-01T03:03:23.910Z,0
2016-12-01T03:04:39.400Z,0
2016-12-01T03:05:55.323Z,0
2016-12-01T03:07:10.944Z,0
2016-12-01T03:08:27.691Z,0
2016-12-01T03:09:43.247Z,0
2016-12-01T03:10:56.169Z,0
2016-12-01T03:12:11.007Z,0
2016-12-01T03:13:27.636Z,0
2016-12-01T03:14:39.381Z,0
2016-12-01T03:15:54.257Z,0
2016-12-01T03:17:08.553Z,0
2016-12-01T03:18:23.462Z,0
2016-12-01T03:19:38.063Z,0
2016-12-01T03:20:53.410Z,0
2016-12-01T03:22:08.129Z,0
2016-12-01T03:23:22.438Z,0
2016-12-01T03:24:34.249Z,0
2016-12-01T03:25:48.804Z,0
2016-12-01T03:27:02.855Z,0
2016-12-01T03:28:19.034Z,0
2016-12-01T03:29:35.401Z,0
2016-12-01T03:30:50.101Z,0
2016-12-01T03:32:01.791Z,0
2016-12-01T03:33:15.272Z,0
2016-12-01T03:34:31.348Z,0
2016-12-01T03:35:46.202Z,0
2016-12-01T03:36:58.051Z,0
2016-12-01T03:38:14.081Z,0
2016-12-01T03:39:27.716Z,0
2016-12-01T03:40:42.435Z,0
2016-12-01T03:41:58.092Z,0
2016-12-01T03:43:13.772Z,0
2016-12-01T03:44:27.961Z,0
2016-12-01T03:45:42.503Z,0
2016-12-01T03:46:58.239Z,0
2016-12-01T03:48:13.971Z,0
2016-12-01T03:49:29.889Z,0
2016-12-01T03:50:45.051Z,0
2016-12-01T03:52:01.230Z,0
2016-12-01T03:53:14.734Z,0
2016-12-01T03:54:31.060Z,0
2016-12-01T03:55:44.515Z,0
2016-12-01T03:57:00.979Z,0
2016-12-01T03:58:15.671Z,0
2016-12-01T03:59:30.572Z,0
2016-12-01T04:00:44.892Z,0
2016-12-01T04:02:01.074Z,0
2016-12-01T04:03:15.835Z,0
2016-12-01T04:04:31.766Z,0
2016-12-01T04:05:48.251Z,0
2016-12-01T04:07:04.034Z,0
2016-12-01T04:08:18.425Z,0
2016-12-01T04:09:31.957Z,0
2016-12-01T04:10:46.402Z,0
2016-12-01T04:12:02.477Z,0
2016-12-01T04:13:17.601Z,0
2016-12-01T04:14:32.106Z,0
2016-12-01T04:15:46.851Z,0
2016-12-01T04:16:59.866Z,0
2016-12-01T04:18:15.213Z,0
2016-12-01T04:19:27.945Z,0
2016-12-01T04:20:42.020Z,0
2016-12-01T04:21:57.129Z,0
2016-12-01T04:23:13.840Z,0
2016-12-01T04:24:30.126Z,0
2016-12-01T04:25:44.638Z,0
2016-12-01T04:26:58.644Z,0
2016-12-01T04:28:13.469Z,0
2016-12-01T04:29:26.595Z,0
2016-12-01T04:30:42.509Z,0
2016-12-01T04:31:56.901Z,0
2016-12-01T04:33:10.048Z,0
2016-12-01T04:34:23.505Z,0
2016-12-01T04:35:38.113Z,0
2016-12-01T04:36:51.490Z,0
2016-12-01T04:38:08.101Z,0
2016-12-01T04:39:22.792Z,0
2016-12-01T04:40:36.409Z,0
2016-12-01T04:41:50.650Z,0
2016-12-01T04:43:06.737Z,0
2016-12-01T04:44:22.047Z,0
2016-12-01T04:45:37.834Z,0
2016-12-01T04:46:53.183Z,0
2016-12-01T04:48:09.353Z,0
2016-12-01T04:49:25.263Z,0
2016-12-01T04:50:41.174Z,0
2016-12-01T04:51:57.351Z,0
2016-12-01T04:53:12.030Z,0
2016-12-01T04:54:26.859Z,0
2016-12-01T04:55:40.070Z,0
2016-12-01T04:56:55.187Z,0
2016-12-01T04:58:10.104Z,0
2016-12-01T04:59:24.884Z,0
2016-12-01T05:00:39.793Z,0
2016-12-01T05:01:53.970Z,0
2016-12-01T05:03:09.921Z,0
2016-12-01T05:04:24.528Z,0
2016-12-01T05:05:38.973Z,0
2016-12-01T05:06:52.217Z,0
2016-12-01T05:08:08.264Z,0
2016-12-01T05:09:24.787Z,0
2016-12-01T05:10:40.705Z,0
2016-12-01T05:11:56.633Z,0
2016-12-01T05:13:13.100Z,0
2016-12-01T05:14:24.463Z,0
2016-12-01T05:15:37.640Z,0
2016-12-01T05:16:52.647Z,0
2016-12-01T05:18:07.405Z,0
2016-12-01T05:19:21.730Z,0
2016-12-01T05:20:37.874Z,0
2016-12-01T05:21:52.823Z,0
2016-12-01T05:23:07.652Z,0
2016-12-01T05:24:22.344Z,0
2016-12-01T05:25:38.740Z,0
2016-12-01T05:26:50.660Z,0
2016-12-01T05:28:06.289Z,0
2016-12-01T05:29:20.924Z,0
2016-12-01T05:30:37.265Z,0
2016-12-01T05:31:51.948Z,0
2016-12-01T05:33:08.827Z,0
2016-12-01T05:34:25.562Z,0
2016-12-01T05:35:41.553Z,0
2016-12-01T05:36:54.782Z,0
2016-12-01T05:38:10.271Z,0
2016-12-01T05:39:24.902Z,0
2016-12-01T05:40:39.323Z,0
2016-12-01T05:41:54.082Z,0
2016-12-01T05:43:09.897Z,0
2016-12-01T05:44:26.046Z,0
2016-12-01T05:45:40.886Z,0
2016-12-01T05:46:53.853Z,0
2016-12-01T05:48:07.442Z,0
2016-12-01T05:49:22.019Z,0
2016-12-01T05:50:37.658Z,0
2016-12-01T05:51:53.307Z,0
2016-12-01T05:53:07.750Z,0
2016-12-01T05:54:24.515Z,0
2016-12-01T05:55:40.404Z,0
2016-12-01T05:56:56.703Z,0
2016-12-01T05:58:11.993Z,0
2016-12-01T05:59:26.492Z,0
2016-12-01T06:00:40.520Z,0
2016-12-01T06:01:55.445Z,0
2016-12-01T06:03:10.510Z,0
2016-12-01T06:04:26.246Z,0
2016-12-01T06:05:40.095Z,0
2016-12-01T06:06:56.156Z,0
2016-12-01T06:08:10.505Z,0
2016-12-01T06:09:27.024Z,0
2016-12-01T06:10:41.295Z,0
2016-12-01T06:11:56.560Z,0
2016-12-01T06:13:11.933Z,0
2016-12-01T06:14:25.740Z,0
2016-12-01T06:15:38.976Z,0
2016-12-01T06:16:55.418Z,0
2016-12-01T06:18:10.291Z,0
2016-12-01T06:19:24.956Z,0
2016-12-01T06:20:40.878Z,0
2016-12-01T06:21:55.985Z,0
2016-12-01T06:23:12.472Z,0
2016-12-01T06:24:28.374Z,0
2016-12-01T06:25:44.253Z,0
2016-12-01T06:27:00.446Z,0
2016-12-01T06:28:16.531Z,0
2016-12-01T06:29:32.694Z,0
2016-12-01T06:30:48.963Z,0
2016-12-01T06:32:05.427Z,0
2016-12-01T06:33:20.119Z,0
2016-12-01T06:34:35.162Z,0
2016-12-01T06:35:51.456Z,0
2016-12-01T06:37:08.264Z,0
2016-12-01T06:38:22.712Z,0
2016-12-01T06:39:39.589Z,0
2016-12-01T06:40:56.106Z,0
2016-12-01T06:42:11.629Z,0
2016-12-01T06:43:27.594Z,20
2016-12-01T06:44:42.111Z,24
2016-12-01T06:45:56.577Z,24
2016-12-01T06:47:10.092Z,24
2016-12-01T06:48:25.803Z,24
2016-12-01T06:49:40.344Z,24
2016-12-01T06:50:56.539Z,24
2016-12-01T06:52:11.378Z,28
2016-12-01T06:53:27.267Z,32
2016-12-01T06:54:43.589Z,32
2016-12-01T06:55:58.517Z,32
2016-12-01T06:57:13.259Z,32
2016-12-01T06:58:29.671Z,36
2016-12-01T06:59:45.953Z,36
2016-12-01T07:01:01.072Z,40
2016-12-01T07:02:16.047Z,40
2016-12-01T07:03:31.936Z,44
2016-12-01T07:04:46.907Z,44
2016-12-01T07:06:02.909Z,48
2016-12-01T07:07:17.808Z,56
2016-12-01T07:08:33.544Z,60
2016-12-01T07:09:48.593Z,64
2016-12-01T07:11:04.342Z,68
2016-12-01T07:12:20.670Z,84
2016-12-01T07:13:34.761Z,88
2016-12-01T07:14:51.484Z,92
2016-12-01T07:16:06.142Z,96
2016-12-01T07:17:21.571Z,112
2016-12-01T07:18:37.906Z,108
2016-12-01T07:19:53.657Z,124
2016-12-01T07:21:10.074Z,116
2016-12-01T07:22:23.327Z,112
2016-12-01T07:23:39.265Z,144
2016-12-01T07:24:55.145Z,164
2016-12-01T07:26:09.700Z,156
2016-12-01T07:27:21.399Z,160
2016-12-01T07:28:35.848Z,208
2016-12-01T07:29:51.844Z,188
2016-12-01T07:31:04.584Z,164
2016-12-01T07:32:21.191Z,196
2016-12-01T07:33:36.362Z,228
2016-12-01T07:34:50.564Z,184
2016-12-01T07:36:05.248Z,192
2016-12-01T07:37:20.129Z,212
2016-12-01T07:38:34.421Z,208
2016-12-01T07:39:49.116Z,208
2016-12-01T07:41:03.758Z,204
2016-12-01T07:42:20.705Z,260
2016-12-01T07:43:35.693Z,356
2016-12-01T07:44:52.731Z,356
2016-12-01T07:46:07.580Z,312
2016-12-01T07:47:20.393Z,300
2016-12-01T07:48:36.090Z,296
2016-12-01T07:49:49.580Z,316
2016-12-01T07:51:03.979Z,364
2016-12-01T07:52:19.260Z,380
2016-12-01T07:53:32.341Z,416
2016-12-01T07:54:49.078Z,456
2016-12-01T07:56:06.015Z,516
2016-12-01T07:57:19.286Z,576
2016-12-01T07:58:33.739Z,696
2016-12-01T07:59:47.000Z,740
2016-12-01T08:01:01.736Z,696
2016-12-01T08:02:17.770Z,696
2016-12-01T08:03:34.209Z,768
2016-12-01T08:04:50.527Z,908
2016-12-01T08:06:05.626Z,940
2016-12-01T08:07:20.320Z,936
2016-12-01T08:08:34.825Z,880
2016-12-01T08:09:51.139Z,1224
2016-12-01T08:11:05.861Z,1136
2016-12-01T08:12:20.954Z,1188
2016-12-01T08:13:36.053Z,1128
2016-12-01T08:14:50.959Z,956
2016-12-01T08:16:07.041Z,756
2016-12-01T08:17:23.708Z,632
2016-12-01T08:18:39.604Z,724
2016-12-01T08:19:53.876Z,908
2016-12-01T08:21:08.974Z,1040
2016-12-01T08:22:23.579Z,1080
2016-12-01T08:23:40.356Z,1132
2016-12-01T08:24:54.180Z,1224
2016-12-01T08:26:09.883Z,1276
2016-12-01T08:27:26.518Z,1192
2016-12-01T08:28:41.437Z,1276
2016-12-01T08:29:57.758Z,940
2016-12-01T08:31:14.438Z,848
2016-12-01T08:32:29.412Z,1040
2016-12-01T08:33:43.796Z,992
2016-12-01T08:34:57.290Z,1008
2016-12-01T08:36:12.448Z,1272
2016-12-01T08:37:28.907Z,1204
2016-12-01T08:38:44.948Z,1252
2016-12-01T08:39:58.349Z,1216
2016-12-01T08:41:13.436Z,1240
2016-12-01T08:42:29.465Z,1352
2016-12-01T08:43:44.184Z,1552
2016-12-01T08:45:00.633Z,1836
2016-12-01T08:46:15.794Z,2008
2016-12-01T08:47:28.880Z,2520
2016-12-01T08:48:42.037Z,2380
2016-12-01T08:49:58.567Z,2288
2016-12-01T08:51:13.043Z,2184
2016-12-01T08:52:27.649Z,1988
2016-12-01T08:53:43.986Z,2392
2016-12-01T08:55:00.539Z,2556
2016-12-01T08:56:13.679Z,3008
2016-12-01T08:57:29.565Z,2756
2016-12-01T08:58:46.530Z,2104
2016-12-01T09:00:02.593Z,1744
2016-12-01T09:01:17.062Z,1580
2016-12-01T09:02:33.541Z,1416
2016-12-01T09:03:47.868Z,1868
2016-12-01T09:05:03.896Z,1592
2016-12-01T09:06:19.884Z,1596
2016-12-01T09:07:36.108Z,1728
2016-12-01T09:08:50.856Z,1584
2016-12-01T09:10:07.427Z,1528
2016-12-01T09:11:21.138Z,1648
2016-12-01T09:12:34.519Z,1284
2016-12-01T09:13:49.582Z,1076
2016-12-01T09:15:05.799Z,1168
2016-12-01T09:16:20.130Z,1264
2016-12-01T09:17:34.805Z,1440
2016-12-01T09:18:50.302Z,1368
2016-12-01T09:20:06.347Z,1836
2016-12-01T09:21:22.387Z,1776
2016-12-01T09:22:38.532Z,1636
2016-12-01T09:23:53.651Z,1856
2016-12-01T09:25:08.318Z,2172
2016-12-01T09:26:22.667Z,2520
2016-12-01T09:27:38.088Z,2280
2016-12-01T09:28:53.201Z,2280
2016-12-01T09:30:07.819Z,2012
2016-12-01T09:31:22.308Z,1768
2016-12-01T09:32:35.378Z,1636
2016-12-01T09:33:49.893Z,1424
2016-12-01T09:35:03.142Z,1756
2016-12-01T09:36:19.271Z,1748
2016-12-01T09:37:34.932Z,1844
2016-12-01T09:38:51.511Z,1912
2016-12-01T09:40:07.254Z,1892
2016-12-01T09:41:21.789Z,2040
2016-12-01T09:42:33.987Z,2152
2016-12-01T09:43:47.205Z,1748
2016-12-01T09:45:01.914Z,1836
2016-12-01T09:46:18.315Z,1584
2016-12-01T09:47:35.443Z,1664
2016-12-01T09:48:51.117Z,1848
2016-12-01T09:50:06.210Z,2032
2016-12-01T09:51:22.553Z,1684
2016-12-01T09:52:35.874Z,1560
2016-12-01T09:53:52.219Z,1672
2016-12-01T09:55:07.310Z,1676
2016-12-01T09:56:21.887Z,1792
2016-12-01T09:57:37.777Z,1760
2016-12-01T09:58:54.604Z,1788
2016-12-01T10:00:10.940Z,2140
2016-12-01T10:01:27.686Z,1940
2016-12-01T10:02:40.935Z,1848
2016-12-01T10:03:57.089Z,1816
2016-12-01T10:05:12.935Z,1824
2016-12-01T10:06:29.511Z,1872
2016-12-01T10:07:45.711Z,1812
2016-12-01T10:09:00.405Z,1752
2016-12-01T10:10:14.867Z,1776
2016-12-01T10:11:31.170Z,1864
2016-12-01T10:12:46.112Z,2112
2016-12-01T10:14:01.928Z,2236
2016-12-01T10:15:18.643Z,2632
2016-12-01T10:16:34.351Z,2516
2016-12-01T10:17:51.284Z,2532
2016-12-01T10:19:07.750Z,2860
2016-12-01T10:20:22.671Z,2800
2016-12-01T10:21:37.946Z,2632
2016-12-01T10:22:52.578Z,3056
2016-12-01T10:24:08.478Z,2320
2016-12-01T10:25:23.235Z,2640
2016-12-01T10:26:39.446Z,2580
2016-12-01T10:27:51.493Z,2764
2016-12-01T10:29:08.052Z,2600
2016-12-01T10:30:20.160Z,2556
2016-12-01T10:31:34.051Z,2596
2016-12-01T10:32:50.772Z,2876
2016-12-01T10:34:04.365Z,3684
2016-12-01T10:35:19.864Z,2844
2016-12-01T10:36:34.404Z,2488
2016-12-01T10:37:47.700Z,2276
2016-12-01T10:39:04.368Z,2312
2016-12-01T10:40:20.675Z,2776
2016-12-01T10:41:36.172Z,2772
2016-12-01T10:42:52.022Z,2464
2016-12-01T10:44:07.282Z,2380
2016-12-01T10:45:22.359Z,2584
2016-12-01T10:46:36.006Z,2504
2016-12-01T10:47:49.678Z,2628
2016-12-01T10:49:02.989Z,2736
2016-12-01T10:50:19.379Z,2420
2016-12-01T10:51:31.525Z,2532
2016-12-01T10:52:44.920Z,2700
2016-12-01T10:54:00.024Z,2508
2016-12-01T10:55:14.924Z,2492
2016-12-01T10:56:31.227Z,2856
2016-12-01T10:57:47.570Z,2968
2016-12-01T10:59:03.065Z,3428
2016-12-01T11:00:18.737Z,3524
2016-12-01T11:01:33.268Z,3572
2016-12-01T11:02:49.072Z,4024
2016-12-01T11:04:03.464Z,4124
2016-12-01T11:05:18.344Z,4892
2016-12-01T11:06:32.821Z,5284
2016-12-01T11:07:49.688Z,5260
2016-12-01T11:09:05.960Z,5152
2016-12-01T11:10:18.210Z,4696
2016-12-01T11:11:33.527Z,4744
2016-12-01T11:12:49.610Z,4880
2016-12-01T11:14:05.584Z,4452
2016-12-01T11:15:21.885Z,4380
2016-12-01T11:16:34.117Z,4260
2016-12-01T11:17:47.773Z,4956
2016-12-01T11:19:01.651Z,4476
2016-12-01T11:20:16.358Z,4292
2016-12-01T11:21:31.395Z,4396
2016-12-01T11:22:47.279Z,4720
2016-12-01T11:24:02.459Z,4996
2016-12-01T11:25:17.247Z,5636
2016-12-01T11:26:33.437Z,5128
2016-12-01T11:27:47.770Z,4924
2016-12-01T11:29:04.224Z,4352
2016-12-01T11:30:20.161Z,4604
2016-12-01T11:31:34.865Z,4668
2016-12-01T11:32:50.036Z,4552
2016-12-01T11:34:06.774Z,5324
2016-12-01T11:35:22.827Z,4556
2016-12-01T11:36:36.509Z,4564
2016-12-01T11:37:52.191Z,4560
2016-12-01T11:39:08.898Z,4572
2016-12-01T11:40:23.227Z,5032
2016-12-01T11:41:39.942Z,4532
2016-12-01T11:42:56.146Z,3328
2016-12-01T11:44:12.767Z,3376
2016-12-01T11:45:26.446Z,3516
2016-12-01T11:46:41.225Z,4208
2016-12-01T11:47:55.477Z,4312
2016-12-01T11:49:11.127Z,4268
2016-12-01T11:50:25.658Z,3120
2016-12-01T11:51:40.356Z,2844
2016-12-01T11:52:55.123Z,3380
2016-12-01T11:54:08.332Z,4680
2016-12-01T11:55:21.726Z,4204
2016-12-01T11:56:36.783Z,3640
2016-12-01T11:57:53.465Z,2900
2016-12-01T11:59:10.399Z,3384
2016-12-01T12:00:27.398Z,4320
2016-12-01T12:01:42.760Z,4148
2016-12-01T12:02:59.077Z,3240
2016-12-01T12:04:14.422Z,3944
2016-12-01T12:05:26.236Z,3260
2016-12-01T12:06:39.634Z,2372
2016-12-01T12:07:54.331Z,2468
2016-12-01T12:09:10.655Z,2736
2016-12-01T12:10:26.800Z,2532
2016-12-01T12:11:41.585Z,2760
2016-12-01T12:12:57.306Z,2248
2016-12-01T12:14:10.061Z,2084
2016-12-01T12:15:26.811Z,2052
2016-12-01T12:16:43.536Z,2144
2016-12-01T12:17:58.177Z,2500
2016-12-01T12:19:11.795Z,1848
2016-12-01T12:20:26.623Z,1676
2016-12-01T12:21:40.501Z,1772
2016-12-01T12:22:54.798Z,1720
2016-12-01T12:24:10.975Z,2124
2016-12-01T12:25:24.374Z,2432
2016-12-01T12:26:36.380Z,2588
2016-12-01T12:27:52.729Z,2400
2016-12-01T12:29:08.379Z,1884
2016-12-01T12:30:24.270Z,2204
2016-12-01T12:31:39.613Z,2232
2016-12-01T12:32:53.016Z,2056
2016-12-01T12:34:08.875Z,2004
2016-12-01T12:35:23.586Z,2696
2016-12-01T12:36:40.163Z,2492
2016-12-01T12:37:56.586Z,2372
2016-12-01T12:39:11.541Z,2512
2016-12-01T12:40:26.533Z,2440
2016-12-01T12:41:42.775Z,2252
2016-12-01T12:42:58.830Z,2300
2016-12-01T12:44:13.862Z,2652
2016-12-01T12:45:28.689Z,2476
2016-12-01T12:46:40.576Z,2544
2016-12-01T12:47:57.430Z,2268
2016-12-01T12:49:13.089Z,2120
2016-12-01T12:50:26.498Z,2284
2016-12-01T12:51:40.941Z,2452
2016-12-01T12:52:55.720Z,2628
2016-12-01T12:54:09.141Z,2812
2016-12-01T12:55:24.570Z,2044
2016-12-01T12:56:39.104Z,1992
2016-12-01T12:57:55.494Z,1892
2016-12-01T12:59:11.848Z,1820
2016-12-01T13:00:27.424Z,1988
2016-12-01T13:01:43.959Z,2740
2016-12-01T13:02:59.068Z,3376
2016-12-01T13:04:14.273Z,2756
2016-12-01T13:05:30.588Z,2204
2016-12-01T13:06:45.575Z,2228
2016-12-01T13:08:00.634Z,2888
2016-12-01T13:09:17.049Z,2592
2016-12-01T13:10:32.149Z,2012
2016-12-01T13:11:48.471Z,2272
2016-12-01T13:13:03.487Z,3256
2016-12-01T13:14:19.035Z,3752
2016-12-01T13:15:35.059Z,3224
2016-12-01T13:16:49.997Z,2744
2016-12-01T13:18:05.314Z,2720
